sensor_id;sensor_type;location;lat;lon;timestamp;temperature;humidity
9885;DHT22;4981;50.966;4.842;2023-11-21T19:33:20;10.90;1.00
9885;DHT22;4981;50.966;4.842;2023-11-21T19:35:47;11.70;1.00
9885;DHT22;4981;50.966;4.842;2023-11-21T19:38:14;11.80;1.00
9885;DHT22;4981;50.966;4.842;2023-11-21T19:40:41;11.60;1.00
9885;DHT22;4981;50.966;4.842;2023-11-21T19:43:09;11.40;1.00
9885;DHT22;4981;50.966;4.842;2023-11-21T19:45:36;13.00;1.00
9885;DHT22;4981;50.966;4.842;2023-11-21T19:48:04;10.90;1.00
9885;DHT22;4981;50.966;4.842;2023-11-21T19:50:33;11.00;1.00
9885;DHT22;4981;50.966;4.842;2023-11-21T19:53:00;11.80;1.00
9885;DHT22;4981;50.966;4.842;2023-11-21T19:55:28;12.30;1.00
9885;DHT22;4981;50.966;4.842;2023-11-21T19:57:55;11.80;1.00
9885;DHT22;4981;50.966;4.842;2023-11-21T20:00:22;12.70;1.00
9885;DHT22;4981;50.966;4.842;2023-11-21T20:02:51;11.70;1.00
9885;DHT22;4981;50.966;4.842;2023-11-21T20:05:18;12.60;1.00
9885;DHT22;4981;50.966;4.842;2023-11-21T20:07:46;11.70;1.00
9885;DHT22;4981;50.966;4.842;2023-11-21T20:10:13;11.30;1.00
9885;DHT22;4981;50.966;4.842;2023-11-21T20:12:40;10.10;1.00
9885;DHT22;4981;50.966;4.842;2023-11-21T20:15:07;10.70;1.00
9885;DHT22;4981;50.966;4.842;2023-11-21T20:17:35;11.80;1.00
9885;DHT22;4981;50.966;4.842;2023-11-21T20:20:03;10.80;1.00
9885;DHT22;4981;50.966;4.842;2023-11-21T20:22:30;10.60;1.00
9885;DHT22;4981;50.966;4.842;2023-11-21T20:25:03;11.80;1.00
9885;DHT22;4981;50.966;4.842;2023-11-21T20:27:30;11.20;1.00
9885;DHT22;4981;50.966;4.842;2023-11-21T20:29:57;10.40;1.00
9885;DHT22;4981;50.966;4.842;2023-11-21T20:32:25;10.70;1.00
9885;DHT22;4981;50.966;4.842;2023-11-21T20:34:52;10.20;1.00
9885;DHT22;4981;50.966;4.842;2023-11-21T20:37:19;10.30;1.00
9885;DHT22;4981;50.966;4.842;2023-11-21T20:39:47;10.40;1.00
9885;DHT22;4981;50.966;4.842;2023-11-21T20:42:16;9.20;1.00
9885;DHT22;4981;50.966;4.842;2023-11-21T20:44:44;8.80;1.00
9885;DHT22;4981;50.966;4.842;2023-11-21T20:47:11;8.40;1.00
9885;DHT22;4981;50.966;4.842;2023-11-21T20:49:38;8.40;1.00
9885;DHT22;4981;50.966;4.842;2023-11-21T20:52:05;8.90;1.00
9885;DHT22;4981;50.966;4.842;2023-11-21T20:54:32;8.40;1.00
9885;DHT22;4981;50.966;4.842;2023-11-21T20:56:59;8.30;1.00
9885;DHT22;4981;50.966;4.842;2023-11-21T20:59:27;8.00;1.00
9885;DHT22;4981;50.966;4.842;2023-11-21T21:01:54;7.90;1.00
9885;DHT22;4981;50.966;4.842;2023-11-21T21:04:22;8.50;1.00
9885;DHT22;4981;50.966;4.842;2023-11-21T21:06:49;8.10;1.00
9885;DHT22;4981;50.966;4.842;2023-11-21T21:09:16;8.10;1.00
9885;DHT22;4981;50.966;4.842;2023-11-21T21:11:44;7.80;1.00
9885;DHT22;4981;50.966;4.842;2023-11-21T21:14:11;7.90;1.00
9885;DHT22;4981;50.966;4.842;2023-11-21T21:16:40;7.80;1.00
9885;DHT22;4981;50.966;4.842;2023-11-21T21:19:08;7.80;1.00
9885;DHT22;4981;50.966;4.842;2023-11-21T21:21:36;7.70;1.00
9885;DHT22;4981;50.966;4.842;2023-11-21T21:24:03;7.90;1.00
9885;DHT22;4981;50.966;4.842;2023-11-21T21:26:30;7.70;1.00
9885;DHT22;4981;50.966;4.842;2023-11-21T21:28:59;7.60;1.00
9885;DHT22;4981;50.966;4.842;2023-11-21T21:31:26;7.80;1.00
9885;DHT22;4981;50.966;4.842;2023-11-21T21:33:55;7.50;1.00
9885;DHT22;4981;50.966;4.842;2023-11-21T21:36:22;7.50;1.00
9885;DHT22;4981;50.966;4.842;2023-11-21T21:38:49;7.40;1.00
9885;DHT22;4981;50.966;4.842;2023-11-21T21:41:17;7.40;1.00
9885;DHT22;4981;50.966;4.842;2023-11-21T21:43:45;7.30;1.00
9885;DHT22;4981;50.966;4.842;2023-11-21T21:46:14;7.20;1.00
9885;DHT22;4981;50.966;4.842;2023-11-21T21:48:42;7.10;1.00
9885;DHT22;4981;50.966;4.842;2023-11-21T21:51:15;7.10;1.00
9885;DHT22;4981;50.966;4.842;2023-11-21T21:53:42;7.10;1.00
